Boyd Deep Canyon Reserve, California Weather observations

Data are for 10 minute period ending at time listed.
 Day   Time   Solar   Ave.   Ave.  Ave.  Vector  Max.   Baro.   Total    
  of    of     Rad.   Air    Rel.  Wind   Wind   Wind  Press.  Precip.   
Year   Day            Temp.  Hum.  Speed  Dir.   Gust                    
2016   (PST)  Kw/m2    F      %     mph   deg.    mph    mb.     in.     
-------------------------------------------------------------------------
 345    0:10   0.00   60.7    46    4.6   174     9.4   409.3    0.00 
 345    0:20   0.00   60.9    46    5.4   191     7.9   409.4    0.00 
 345    0:30   0.00   61.2    46    4.2   180     8.2   409.3    0.00 
 345    0:40   0.00   61.2    46    5.1   171     8.6   409.4    0.00 
 345    0:50   0.00   60.9    47    4.1   172     6.3   409.5    0.00 
 345    1:00   0.00   60.8    47    4.6   179     6.6   409.6    0.00 
 345    1:10   0.00   61.1    47    5.4   173     7.7   409.6    0.00 
 345    1:20   0.00   61.3    46    5.2   176     8.0   409.6    0.00 
 345    1:30   0.00   61.2    46    5.1   186     7.2   409.5    0.00 
 345    1:40   0.00   60.7    47    3.6   196     5.3   409.4    0.00 
 345    1:50   0.00   60.5    48    3.3   174     5.9   409.6    0.00 
 345    2:00   0.00   57.8    51    2.7     7     5.1   409.0    0.00 
 345    2:10   0.00   55.8    54    1.7    72     3.2   408.8    0.00 
 345    2:20   0.00   55.6    55    0.1   265     0.8   408.7    0.00 
 345    2:30   0.00   55.7    55    1.9   196     7.2   408.9    0.00 
 345    2:40   0.00   59.4    50    7.3   196    11.2   409.6    0.00 
 345    2:50   0.00   60.4    48    6.6   198    11.0   409.6    0.00 
 345    3:00   0.00   60.4    48    5.3   189    11.2   409.5    0.00 
 345    3:10   0.00   60.5    48    7.1   196    13.2   409.6    0.00 
 345    3:20   0.00   60.6    47    5.3   191     9.6   409.5    0.00 
 345    3:30   0.00   60.6    48    5.9   198    11.4   409.5    0.00 
 345    3:40   0.00   60.9    47    7.8   209    14.0   409.6    0.00 
 345    3:50   0.00   60.8    47    6.7   201    13.0   409.5    0.00 
 345    4:00   0.00   60.8    47    6.8   197    11.5   409.5    0.00 
 345    4:10   0.00   61.1    46    9.4   216    15.0   409.5    0.00 
 345    4:20   0.00   60.7    47    6.9   203    11.4   409.4    0.00 
 345    4:30   0.00   60.6    47    4.9   230     9.4   409.4    0.00 
 345    4:40   0.00   58.9    50    2.9   266     6.6   409.3    0.00 
 345    4:50   0.00   57.3    53    1.7    65     3.1   409.2    0.00 
 345    5:00   0.00   56.9    54    1.1    30     3.4   409.1    0.00 
 345    5:10   0.00   55.6    56    0.8   335     2.4   409.1    0.00 
 345    5:20   0.00   55.0    57    1.7   340     2.7   409.0    0.00 
 345    5:30   0.00   54.4    58    0.0   273     0.6   409.1    0.00 
 345    5:40   0.00   54.4    58    1.3   240     4.3   408.9    0.00 
 345    5:50   0.00   53.8    60    2.9    38     5.0   409.0    0.00 
 345    6:00   0.00   54.9    57    1.7   196     2.9   409.1    0.00 
 345    6:10   0.00   54.5    58    3.2   190     4.6   409.1    0.00 
 345    6:20   0.00   55.1    57    1.9   227     4.2   409.1    0.00 
 345    6:30   0.00   54.2    59    0.3   114     1.3   409.0    0.00 
 345    6:40   0.00   53.8    60    1.9   226     3.1   409.0    0.00 
 345    6:50   0.01   54.5    59    1.4   223     4.0   409.0    0.00 
 345    7:00   0.01   54.7    58    1.1   233     3.1   409.0    0.00 
 345    7:10   0.03   54.1    59    1.6   220     2.6   408.9    0.00 
 345    7:20   0.03   55.1    57    1.9   189     3.9   409.1    0.00 
 345    7:30   0.03   56.1    55    0.7    58     2.5   409.2    0.00 
 345    7:40   0.03   55.9    56    0.7   231     2.9   409.1    0.00 
 345    7:50   0.04   56.3    55    0.0     0     0.0   409.2    0.00 
 345    8:00   0.16   57.8    52    0.0   179     0.7   409.3    0.00 
 345    8:10   0.21   59.7    49    1.3   221     3.3   409.4    0.00 
 345    8:20   0.23   61.1    47    1.9    39     3.4   409.6    0.00 
 345    8:30   0.26   60.4    48    3.1    67     4.6   409.4    0.00 
 345    8:40   0.28   60.2    49    3.7    10     6.1   409.5    0.00 
 345    8:50   0.30   60.3    48    1.5    57     3.4   409.7    0.00 
 345    9:00   0.32   61.3    47    1.4    20     3.5   409.7    0.00 
 345    9:10   0.35   61.8    46    0.6    57     1.8   409.8    0.00 
 345    9:20   0.38   62.4    45    0.9     9     2.6   409.8    0.00 
 345    9:30   0.40   63.6    43    0.8   107     2.8   409.8    0.00 
 345    9:40   0.42   65.4    40    0.4   101     1.8   410.1    0.00 
 345    9:50   0.45   66.1    39    0.8   163     2.0   410.2    0.00 
 345   10:00   0.47   66.4    38    1.0   160     2.8   410.2    0.00 
 345   10:10   0.47   66.9    37    1.0   146     2.6   410.3    0.00 
 345   10:20   0.49   67.6    37    1.2    23     4.7   410.4    0.00 
 345   10:30   0.52   66.3    39    3.0     8     5.4   410.3    0.00 
 345   10:40   0.52   66.2    39    3.1     3     5.8   410.3    0.00 
 345   10:50   0.54   66.6    38    3.4     1     5.6   410.4    0.00 
 345   11:00   0.50   67.2    37    1.4   348     5.2   410.4    0.00 
 345   11:10   0.54   69.4    34    1.3   208     3.4   410.6    0.00 
 345   11:20   0.54   68.7    35    2.6    63     5.8   410.6    0.00 
 345   11:30   0.53   67.9    36    2.3    86     4.9   410.6    0.00 
 345   11:40   0.54   68.4    35    1.7    48     5.0   410.5    0.00 
 345   11:50   0.54   68.7    35    3.8    63     7.9   410.7    0.00 
 345   12:00   0.53   68.5    35    5.6    77     9.0   410.5    0.00 
 345   12:10   0.53   68.6    34    5.6    62     9.3   410.5    0.00 
 345   12:20   0.51   68.8    35    4.9    54     8.4   410.7    0.00 
 345   12:30   0.53   69.5    35    5.7   350     9.5   411.0    0.00 
 345   12:40   0.51   69.0    36    4.2   353     7.7   410.9    0.00 
 345   12:50   0.49   69.1    35    4.2    62     6.4   410.8    0.00 
 345   13:00   0.46   68.3    36    4.7   112     7.8   410.6    0.00 
 345   13:10   0.44   68.1    36    3.7   112     8.1   410.5    0.00 
 345   13:20   0.41   68.3    36    4.6    92     9.2   410.5    0.00 
 345   13:30   0.39   68.5    35    5.6    77     8.3   410.6    0.00 
 345   13:40   0.40   69.1    34    3.9    72     7.4   410.7    0.00 
 345   13:50   0.35   69.2    34    4.8    92     8.5   410.7    0.00 
 345   14:00   0.29   68.5    35    6.1    97     9.6   410.6    0.00 
 345   14:10   0.31   68.5    35    4.8    89     9.3   410.5    0.00 
 345   14:20   0.32   68.8    34    4.6    82     8.6   410.5    0.00 
 345   14:30   0.32   68.7    34    4.9    85     7.5   410.5    0.00 
 345   14:40   0.33   69.0    34    4.8    83     7.7   410.5    0.00 
 345   14:50   0.27   69.2    33    3.4   101     6.1   410.6    0.00 
 345   15:00   0.19   68.8    34    4.4    95     8.2   410.5    0.00 
 345   15:10   0.25   68.3    34    4.3    89     8.8   410.3    0.00 
 345   15:20   0.22   69.0    33    2.9    83     4.7   410.5    0.00 
 345   15:30   0.13   70.0    33    0.6    59     1.8   410.8    0.00 
 345   15:40   0.08   69.7    33    0.8   101     2.6   410.8    0.00 
 345   15:50   0.08   68.9    33    1.9    64     3.0   410.5    0.00 
 345   16:00   0.07   69.0    33    0.7    93     2.3   410.5    0.00 
 345   16:10   0.05   68.9    34    1.5    59     2.5   410.6    0.00 
 345   16:20   0.03   68.3    35    0.6    74     2.2   410.5    0.00 
 345   16:30   0.01   68.1    35    0.3    66     1.2   410.4    0.00 
 345   16:40   0.01   67.6    36    0.5   252     2.0   410.3    0.00 
 345   16:50   0.00   67.0    36    1.0     3     3.1   410.2    0.00 
 345   17:00   0.00   66.0    38    4.5     4     9.3   410.1    0.00 
 345   17:10   0.00   65.8    39    3.8     3     8.5   410.1    0.00 
 345   17:20   0.00   65.7    38    3.2   329     5.6   409.9    0.00 
 345   17:30   0.00   65.5    39    2.6   192     4.7   410.0    0.00 
 345   17:40   0.00   65.1    39    0.7     9     2.6   409.9    0.00 
 345   17:50   0.00   64.1    40    2.3   193     4.3   409.7    0.00 
 345   18:00   0.00   64.3    40    1.9   192     4.4   409.7    0.00 
 345   18:10   0.00   63.6    41    0.9    25     2.6   409.7    0.00 
 345   18:20   0.00   62.9    42    1.1   291     2.6   409.6    0.00 
 345   18:30   0.00   62.9    43    2.6   180     4.7   409.5    0.00 
 345   18:40   0.00   62.9    43    1.9   212     4.6   409.6    0.00 
 345   18:50   0.00   62.8    43    2.9   185     4.5   409.6    0.00 
 345   19:00   0.00   63.1    43    2.2   211     3.8   409.7    0.00 
 345   19:10   0.00   62.7    44    0.9   208     2.3   409.6    0.00 
 345   19:20   0.00   62.1    44    0.7    49     2.2   409.5    0.00 
 345   19:30   0.00   61.9    44    1.0     8     2.0   409.6    0.00 
 345   19:40   0.00   61.5    45    1.2    74     2.9   409.6    0.00 
 345   19:50   0.00   61.5    46    2.5    62     4.0   409.6    0.00 
 345   20:00   0.00   60.9    47    1.5    85     3.1   409.6    0.00 
 345   20:10   0.00   61.2    46    1.4    49     3.7   409.7    0.00 
 345   20:20   0.00   60.1    48    1.3   246     4.5   409.5    0.00 
 345   20:30   0.00   60.0    48    3.9   200     5.5   409.5    0.00 
 345   20:40   0.00   59.9    48    2.7   193     5.1   409.5    0.00 
 345   20:50   0.00   59.5    49    1.5    47     3.1   409.5    0.00 
 345   21:00   0.00   59.3    49    1.2   210     2.8   409.4    0.00 
 345   21:10   0.00   59.5    49    0.3   210     1.3   409.4    0.00 
 345   21:20   0.00   58.8    50    2.3   193     3.7   409.4    0.00 
 345   21:30   0.00   59.3    50    2.1   194     3.9   409.4    0.00 
 345   21:40   0.00   59.3    50    2.6   180     4.4   409.5    0.00 
 345   21:50   0.00   59.3    50    1.2   212     3.7   409.5    0.00 
 345   22:00   0.00   59.2    50    4.4   190     6.9   409.5    0.00 
 345   22:10   0.00   60.7    48    3.6   158     6.5   409.7    0.00 
 345   22:20   0.00   59.8    50    2.2    80     3.2   409.7    0.00 
 345   22:30   0.00   59.8    51    1.9   181     4.5   409.8    0.00 
 345   22:40   0.00   60.1    52    3.0   162     5.9   410.1    0.00 
 345   22:50   0.00   60.0    52    2.6   254     4.8   410.0    0.00 
 345   23:00   0.00   59.6    53    2.6   343     4.8   410.1    0.00 
 345   23:10   0.00   59.2    55    2.6   186     5.3   410.2    0.00 
 345   23:20   0.00   60.9    53    4.3   150     6.4   410.6    0.00 
 345   23:30   0.00   61.2    52    2.9   147     8.5   410.6    0.00 
 345   23:40   0.00   62.3    50    5.8    83    13.5   410.7    0.00 
 345   23:50   0.00   62.7    49    4.6   125    11.2   410.7    0.00 
 346    0:00   0.00   62.3    50    4.7    87    12.5   410.7    0.00 

Return to Boyd Deep Canyon Reserve graphs page.


Western Regional Climate Center,wrcc@dri.edu